Airfield :
LOGIN :

Register | Disclaimer

   EN    FR    IT 

 










Legend :    VFR   Marginal VFR   IFR   Intensive IFR   Very Intensive IFR
Visi :
Ceiling :
>= 8 km
>= 3000ft
5 to 8 km
1000 to 3000 ft
1500m to 5 km
500 to 1000 ft
800 to 1500m
200 to 500 ft
< 800m
< 200 ft
Symbols :   Thunderstorms  Fog  Heavy snow  Heavy precipitations  Wind > 20 kt
SIGMETs :     Misc.  Thunderstorms  Icing  Turbulence  Mountain Waves  Volcanic Ashes






- Airport Elevation : 538 ft
- IATA code : TNF


LFPN - Toussus Le Noble

CURRENT METAR :
  • 250800Z AUTO 19003KT 0300 0250 R25R/0300N FZFG VV/// M01/M02 Q1033 BECMG 2000 BR BKN002

EXPIRED METARs :
  • 250730Z AUTO VRB02KT 0350 0300 R25R/0350N FZFG VV/// M01/M02 Q1032 BECMG 2000 BR BKN002
  • 250700Z AUTO VRB01KT 0350 R25R/0400N FZFG VV/// M01/M02 Q1032 BECMG 2000 BR BKN002
  • 250630Z AUTO VRB01KT 0350 R25R/0400N FZFG VV/// M01/M02 Q1032 BECMG 2000 BR BKN002
  • 250600Z AUTO VRB02KT 0350 R25R/0400N FZFG VV/// M01/M02 Q1032 NOSIG
  • 250530Z AUTO VRB02KT 0350 0300 R25R/0325N FZFG VV/// M02/M02 Q1032 NOSIG

TAF TAF LFPN
Valid from the 25 at 06:00 until the 25 at 15:00 UTC


250500Z 2506/2515 VRB02KT 0800 FG VV///
TEMPO 2506/2508 0200 FZFG
BECMG 2508/2510 2000 BR BKN002
BECMG 2510/2512 6000 NSW BKN008
TEMPO 2513/2515 BKN010
ATIS : +33 1 39 56 54 70



MET'MAP, your aeronautical weather chart ! - Copyright ORBIFLY December 2007 - Disclaimer

ORBIFLY MET'MAP TEAM :

Programming & Development : Alexandra Zaïnal
Original concept : Baudouin d'Aumeries
Technical & hardware support : Manuel Goepfert
Assistance : Marc-Olivier Méhu

Contact : metmap@orbifly.com




SOURCES & CREDITS :

   NOAA